Time;durP1;ratioP1;P1;durP2;ratioP2;P2;SDS_P1;SDS_P2;PMS_P1;PMS_P2;Temp;Humidity;BMP_temperature;BMP_pressure;BME280_temperature;BME280_humidity;BME280_pressure;Samples;Min_cycle;Max_cycle;Signal;HPM_P1;HPM_P2
2022/11/01 00:00:50;;;;;;;;;;;10.70;99.90;;;;;;2621889;46;19972;31
2022/11/01 00:03:24;;;;;;;;;;;10.70;99.90;;;;;;2603437;54;19934;31
2022/11/01 00:05:59;;;;;;;;;;;10.70;99.90;;;;;;2701211;39;22258;31
2022/11/01 00:08:34;;;;;;;;;;;10.70;99.90;;;;;;2603300;54;19935;31
2022/11/01 00:11:08;;;;;;;;;;;10.70;99.90;;;;;;2603632;54;20729;31
2022/11/01 00:13:43;;;;;;;;;;;10.70;99.90;;;;;;2603591;54;19934;31
2022/11/01 00:16:16;;;;;;;;;;;10.60;99.90;;;;;;2603467;54;19934;31
2022/11/01 00:18:54;;;;;;;;;;;10.60;99.90;;;;;;2603317;54;20710;31
2022/11/01 00:21:31;;;;;;;;;;;10.60;99.90;;;;;;2621838;46;19935;31
2022/11/01 00:24:05;;;;;;;;;;;10.60;99.90;;;;;;2603126;54;20769;31
2022/11/01 00:26:39;;;;;;;;;;;10.60;99.90;;;;;;2603066;54;20811;31
2022/11/01 00:29:13;;;;;;;;;;;10.60;99.90;;;;;;2621809;46;19985;31
2022/11/01 00:31:47;;;;;;;;;;;10.50;99.90;;;;;;2621984;46;20800;31
2022/11/01 00:34:22;;;;;;;;;;;10.50;99.90;;;;;;2619821;46;20729;31
2022/11/01 00:36:59;;;;;;;;;;;10.50;99.90;;;;;;2603292;54;20741;31
2022/11/01 00:39:34;;;;;;;;;;;10.50;99.90;;;;;;2621849;46;19942;31
2022/11/01 00:42:09;;;;;;;;;;;10.60;99.90;;;;;;2603198;54;19935;31
2022/11/01 00:44:48;;;;;;;;;;;10.60;99.90;;;;;;2603133;54;19946;31
2022/11/01 00:47:22;;;;;;;;;;;10.60;99.90;;;;;;2622005;47;19934;31
2022/11/01 00:49:57;;;;;;;;;;;10.60;99.90;;;;;;2603446;54;20773;31
2022/11/01 00:52:32;;;;;;;;;;;10.60;99.90;;;;;;2603393;54;19934;31
2022/11/01 00:55:06;;;;;;;;;;;10.60;99.90;;;;;;2621776;47;20005;31
2022/11/01 00:57:38;;;;;;;;;;;10.60;99.90;;;;;;2603360;54;20791;31
2022/11/01 01:00:13;;;;;;;;;;;10.60;99.90;;;;;;2621010;47;20782;31
2022/11/01 01:02:49;;;;;;;;;;;10.60;99.90;;;;;;2602513;54;19949;31
2022/11/01 01:05:23;;;;;;;;;;;10.50;99.90;;;;;;2603019;54;20758;31
2022/11/01 01:08:01;;;;;;;;;;;10.50;99.90;;;;;;2603095;54;19942;31
2022/11/01 01:10:35;;;;;;;;;;;10.60;99.90;;;;;;2621770;47;19941;31
2022/11/01 01:13:09;;;;;;;;;;;10.50;99.90;;;;;;2603416;54;19935;31
2022/11/01 01:15:44;;;;;;;;;;;10.50;99.90;;;;;;2603126;54;20758;31
2022/11/01 01:18:18;;;;;;;;;;;10.60;99.90;;;;;;2621987;47;20752;31
2022/11/01 01:20:53;;;;;;;;;;;10.50;99.90;;;;;;2602243;54;19965;31
2022/11/01 01:23:29;;;;;;;;;;;10.50;99.90;;;;;;2701960;39;20970;31
2022/11/01 01:26:07;;;;;;;;;;;10.50;99.90;;;;;;2603155;54;19956;31
2022/11/01 01:28:41;;;;;;;;;;;10.60;99.90;;;;;;2602887;54;19950;31
2022/11/01 01:31:19;;;;;;;;;;;10.50;99.90;;;;;;2621707;47;20017;31
2022/11/01 01:33:54;;;;;;;;;;;10.50;99.90;;;;;;2603269;54;19935;31
2022/11/01 01:36:28;;;;;;;;;;;10.50;99.90;;;;;;2621570;47;20770;31
2022/11/01 01:39:06;;;;;;;;;;;10.50;99.90;;;;;;2622099;47;19935;31
2022/11/01 01:44:43;;;;;;;;;;;10.50;99.90;;;;;;2603904;54;19934;31
2022/11/01 01:47:20;;;;;;;;;;;10.50;99.90;;;;;;2622619;46;19941;31
2022/11/01 01:49:56;;;;;;;;;;;10.40;99.90;;;;;;2622491;46;19941;31
2022/11/01 01:52:30;;;;;;;;;;;10.40;99.90;;;;;;2603806;54;19935;31
2022/11/01 01:55:08;;;;;;;;;;;10.40;99.90;;;;;;2622406;46;20769;31
2022/11/01 01:57:43;;;;;;;;;;;10.40;99.90;;;;;;2604072;54;20779;31
2022/11/01 02:00:17;;;;;;;;;;;10.40;99.90;;;;;;2622551;46;20714;31
2022/11/01 02:02:53;;;;;;;;;;;10.40;99.90;;;;;;2603909;54;20830;31
2022/11/01 02:05:30;;;;;;;;;;;10.40;99.90;;;;;;2603907;54;19961;31
2022/11/01 02:08:04;;;;;;;;;;;10.30;99.90;;;;;;2604038;54;20723;31
2022/11/01 02:10:42;;;;;;;;;;;10.40;99.90;;;;;;2603687;54;19946;31
2022/11/01 02:13:18;;;;;;;;;;;10.30;99.90;;;;;;2603860;54;19941;31
2022/11/01 02:16:02;;;;;;;;;;;10.30;99.90;;;;;;2603972;54;19934;31
2022/11/01 02:21:15;;;;;;;;;;;10.30;99.90;;;;;;2622380;46;19943;31
2022/11/01 02:24:00;;;;;;;;;;;10.30;99.90;;;;;;2603805;54;19941;31
2022/11/01 02:26:49;;;;;;;;;;;10.30;99.90;;;;;;2622241;46;19941;31
2022/11/01 02:29:30;;;;;;;;;;;10.30;99.90;;;;;;2603761;54;19934;31
2022/11/01 02:32:08;;;;;;;;;;;10.30;99.90;;;;;;2603738;54;20745;31
2022/11/01 02:34:44;;;;;;;;;;;10.30;99.90;;;;;;2603650;54;19934;31
2022/11/01 02:37:24;;;;;;;;;;;10.30;99.90;;;;;;2603822;54;19934;31
2022/11/01 02:39:58;;;;;;;;;;;10.30;99.90;;;;;;2603756;54;20716;31
2022/11/01 02:42:33;;;;;;;;;;;10.20;99.90;;;;;;2621872;46;19941;31
2022/11/01 02:45:08;;;;;;;;;;;10.20;99.90;;;;;;2603667;54;21335;31
2022/11/01 02:47:45;;;;;;;;;;;10.20;99.90;;;;;;2622327;46;20013;31
2022/11/01 02:50:20;;;;;;;;;;;10.10;99.90;;;;;;2622263;47;20766;31
2022/11/01 02:52:54;;;;;;;;;;;10.10;99.90;;;;;;2603798;54;19981;31
2022/11/01 02:55:32;;;;;;;;;;;10.10;99.90;;;;;;2603745;54;19946;31
2022/11/01 02:58:08;;;;;;;;;;;10.00;99.90;;;;;;2622224;46;20773;31
2022/11/01 03:00:44;;;;;;;;;;;10.00;99.90;;;;;;2603680;54;19941;31
2022/11/01 03:03:21;;;;;;;;;;;9.90;99.90;;;;;;2622323;46;20786;31
2022/11/01 03:05:59;;;;;;;;;;;9.90;99.90;;;;;;2622019;46;19942;31
2022/11/01 03:08:34;;;;;;;;;;;9.90;99.90;;;;;;2622034;46;19938;31
2022/11/01 03:11:10;;;;;;;;;;;9.90;99.90;;;;;;2621883;46;20786;31
2022/11/01 03:13:50;;;;;;;;;;;9.80;99.90;;;;;;2603595;54;20799;31
2022/11/01 03:16:26;;;;;;;;;;;9.80;99.90;;;;;;2603433;54;19934;31
2022/11/01 03:19:08;;;;;;;;;;;9.80;99.90;;;;;;2622231;46;19950;31
2022/11/01 03:24:17;;;;;;;;;;;9.80;99.90;;;;;;2603913;54;19934;31
2022/11/01 03:26:52;;;;;;;;;;;9.70;99.90;;;;;;2603637;54;19946;31
2022/11/01 03:29:26;;;;;;;;;;;9.80;99.90;;;;;;2603629;54;19942;31
2022/11/01 03:32:01;;;;;;;;;;;9.80;99.90;;;;;;2621745;46;19934;31
2022/11/01 03:34:39;;;;;;;;;;;9.70;99.90;;;;;;2621915;46;19993;31
2022/11/01 03:37:13;;;;;;;;;;;9.80;99.90;;;;;;2603709;54;20825;31
2022/11/01 03:39:50;;;;;;;;;;;9.80;99.90;;;;;;2621986;46;19935;31
2022/11/01 03:42:24;;;;;;;;;;;9.70;99.90;;;;;;2603523;54;19956;31
2022/11/01 03:45:01;;;;;;;;;;;9.70;99.90;;;;;;2603457;54;19961;31
2022/11/01 03:47:36;;;;;;;;;;;9.70;99.90;;;;;;2603452;54;21484;31
2022/11/01 03:50:18;;;;;;;;;;;9.80;99.90;;;;;;2622046;46;20745;31
2022/11/01 03:52:53;;;;;;;;;;;9.80;99.90;;;;;;2603415;54;19934;31
2022/11/01 03:55:26;;;;;;;;;;;9.80;99.90;;;;;;2603655;54;19934;31
2022/11/01 03:58:01;;;;;;;;;;;9.80;99.90;;;;;;2603390;54;19950;31
2022/11/01 04:00:36;;;;;;;;;;;9.80;99.90;;;;;;2602947;54;20725;31
2022/11/01 04:03:10;;;;;;;;;;;9.70;99.90;;;;;;2603441;54;19934;31
2022/11/01 04:05:47;;;;;;;;;;;9.70;99.90;;;;;;2603760;54;19934;31
2022/11/01 04:08:21;;;;;;;;;;;9.70;99.90;;;;;;2603613;54;19993;31
2022/11/01 04:11:00;;;;;;;;;;;9.70;99.90;;;;;;2603506;54;19942;31
2022/11/01 04:13:34;;;;;;;;;;;9.70;99.90;;;;;;2621881;46;19935;31
2022/11/01 04:21:46;;;;;;;;;;;9.60;99.90;;;;;;2603271;54;19941;31
2022/11/01 04:24:22;;;;;;;;;;;9.60;99.90;;;;;;2621952;46;19946;31
2022/11/01 04:26:56;;;;;;;;;;;9.50;99.90;;;;;;2603311;54;19934;31
2022/11/01 04:29:30;;;;;;;;;;;9.50;99.90;;;;;;2603198;54;20013;31
2022/11/01 04:32:04;;;;;;;;;;;9.40;99.90;;;;;;2603195;54;19934;31
2022/11/01 04:34:44;;;;;;;;;;;9.40;99.90;;;;;;2603449;54;19960;31
2022/11/01 04:37:22;;;;;;;;;;;9.40;99.90;;;;;;2603441;54;19934;31
2022/11/01 04:39:56;;;;;;;;;;;9.40;99.90;;;;;;2621760;46;20799;31
2022/11/01 04:42:30;;;;;;;;;;;9.30;99.90;;;;;;2621700;46;20842;31
2022/11/01 04:45:05;;;;;;;;;;;9.30;99.90;;;;;;2603210;54;20674;31
2022/11/01 04:47:49;;;;;;;;;;;9.30;99.90;;;;;;2603484;54;20749;31
2022/11/01 04:50:24;;;;;;;;;;;9.30;99.90;;;;;;2621904;47;19934;31
2022/11/01 04:53:02;;;;;;;;;;;9.30;99.90;;;;;;2603309;54;19934;31
2022/11/01 04:55:36;;;;;;;;;;;9.20;99.90;;;;;;2621800;47;20843;31
2022/11/01 04:58:10;;;;;;;;;;;9.20;99.90;;;;;;2603360;54;19934;31
2022/11/01 05:00:44;;;;;;;;;;;9.20;99.90;;;;;;2621721;47;20714;31
2022/11/01 05:03:19;;;;;;;;;;;9.20;99.90;;;;;;2621922;47;20012;31
2022/11/01 05:05:54;;;;;;;;;;;9.10;99.90;;;;;;2603119;54;19935;31
2022/11/01 05:08:29;;;;;;;;;;;9.10;99.90;;;;;;2603338;54;19934;31
2022/11/01 05:11:06;;;;;;;;;;;9.10;99.90;;;;;;2603054;54;20814;31
2022/11/01 05:13:40;;;;;;;;;;;9.10;99.90;;;;;;2622322;46;19950;31
2022/11/01 05:16:14;;;;;;;;;;;9.10;99.90;;;;;;2622664;46;19939;31
2022/11/01 05:18:53;;;;;;;;;;;9.00;99.90;;;;;;2603802;54;20795;31
2022/11/01 05:21:29;;;;;;;;;;;9.00;99.90;;;;;;2603916;54;19961;31
2022/11/01 05:24:01;;;;;;;;;;;9.00;99.90;;;;;;2622627;46;20002;31
2022/11/01 05:26:39;;;;;;;;;;;9.00;99.90;;;;;;2603920;54;20727;31
2022/11/01 05:29:13;;;;;;;;;;;9.00;99.90;;;;;;2604186;54;19935;31
2022/11/01 05:32:10;;;;;;;;;;;9.00;99.90;;;;;;2622497;46;19941;31
2022/11/01 05:34:45;;;;;;;;;;;9.00;99.90;;;;;;2622265;46;19934;31
2022/11/01 05:37:20;;;;;;;;;;;9.00;99.90;;;;;;2622429;46;20748;31
2022/11/01 05:40:00;;;;;;;;;;;9.00;99.90;;;;;;2603771;54;20778;31
2022/11/01 05:42:38;;;;;;;;;;;9.00;99.90;;;;;;2603913;54;20743;31
2022/11/01 05:45:16;;;;;;;;;;;9.00;99.90;;;;;;2622829;46;20756;31
2022/11/01 05:47:51;;;;;;;;;;;9.00;99.90;;;;;;2603818;54;19934;31
2022/11/01 05:50:24;;;;;;;;;;;9.00;99.90;;;;;;2603803;54;19993;31
2022/11/01 05:53:05;;;;;;;;;;;8.90;99.90;;;;;;2603979;54;19934;31
2022/11/01 05:55:42;;;;;;;;;;;8.90;99.90;;;;;;2603846;54;19942;31
2022/11/01 05:58:19;;;;;;;;;;;8.90;99.90;;;;;;2603702;54;20706;31
2022/11/01 06:00:52;;;;;;;;;;;8.90;99.90;;;;;;2622359;46;19941;31
2022/11/01 06:03:29;;;;;;;;;;;9.00;99.90;;;;;;2603577;54;19935;31
2022/11/01 06:06:03;;;;;;;;;;;9.00;99.90;;;;;;2622317;46;20801;31
2022/11/01 06:08:37;;;;;;;;;;;9.00;99.90;;;;;;2622171;46;19939;31
2022/11/01 06:11:14;;;;;;;;;;;9.10;99.90;;;;;;2603962;54;19939;31
2022/11/01 06:13:52;;;;;;;;;;;9.00;99.90;;;;;;2603668;54;19989;31
2022/11/01 06:16:28;;;;;;;;;;;9.20;99.90;;;;;;2603742;54;19934;31
2022/11/01 06:19:02;;;;;;;;;;;9.10;99.90;;;;;;2615893;46;20801;31
2022/11/01 06:21:36;;;;;;;;;;;9.10;99.90;;;;;;2603104;54;20802;31
2022/11/01 06:24:11;;;;;;;;;;;9.10;99.90;;;;;;2622035;46;19960;31
2022/11/01 06:26:45;;;;;;;;;;;9.10;99.90;;;;;;2622398;46;19939;31
2022/11/01 06:29:23;;;;;;;;;;;9.20;99.90;;;;;;2603768;54;20025;31
2022/11/01 06:31:58;;;;;;;;;;;9.20;99.90;;;;;;2622401;46;19961;31
2022/11/01 06:34:32;;;;;;;;;;;9.30;99.90;;;;;;2622132;46;19947;31
2022/11/01 06:37:06;;;;;;;;;;;9.30;99.90;;;;;;2603643;54;19934;31
2022/11/01 06:39:42;;;;;;;;;;;9.30;99.90;;;;;;2603765;54;20753;31
2022/11/01 06:42:17;;;;;;;;;;;9.40;99.90;;;;;;2603795;54;19954;31
2022/11/01 06:44:54;;;;;;;;;;;9.30;99.90;;;;;;2603748;54;19941;31
2022/11/01 06:47:29;;;;;;;;;;;9.40;99.90;;;;;;2603935;54;19941;31
2022/11/01 06:50:04;;;;;;;;;;;9.40;99.90;;;;;;2603449;54;19941;31
2022/11/01 06:52:38;;;;;;;;;;;9.40;99.90;;;;;;2603666;54;19947;31
2022/11/01 06:55:12;;;;;;;;;;;9.50;99.90;;;;;;2622099;46;20756;31
2022/11/01 06:57:54;;;;;;;;;;;9.60;99.90;;;;;;2603796;54;20758;31
2022/11/01 07:00:31;;;;;;;;;;;9.70;99.90;;;;;;2603591;54;20845;31
2022/11/01 07:03:06;;;;;;;;;;;9.90;99.90;;;;;;2603500;54;20685;31
2022/11/01 07:05:38;;;;;;;;;;;10.20;99.90;;;;;;2603812;54;19961;31
2022/11/01 07:08:14;;;;;;;;;;;10.60;99.90;;;;;;2622271;46;20698;31
2022/11/01 07:10:47;;;;;;;;;;;11.00;99.90;;;;;;2603755;54;19934;31
2022/11/01 07:13:23;;;;;;;;;;;11.30;99.90;;;;;;2603666;54;19942;31
2022/11/01 07:16:03;;;;;;;;;;;11.70;99.90;;;;;;2603514;54;19998;31
2022/11/01 07:18:40;;;;;;;;;;;12.10;99.90;;;;;;2603274;54;20784;31
2022/11/01 07:21:14;;;;;;;;;;;12.50;99.90;;;;;;2603901;54;19941;31
2022/11/01 07:23:48;;;;;;;;;;;12.80;99.90;;;;;;2603522;54;20037;31
2022/11/01 07:26:21;;;;;;;;;;;13.10;99.90;;;;;;2622018;46;19942;31
2022/11/01 07:28:55;;;;;;;;;;;13.40;99.90;;;;;;2603758;54;19941;31
2022/11/01 07:31:33;;;;;;;;;;;13.70;99.90;;;;;;2603404;54;20005;31
2022/11/01 07:34:09;;;;;;;;;;;13.90;99.90;;;;;;2603497;54;20788;31
2022/11/01 07:36:44;;;;;;;;;;;14.10;99.90;;;;;;2622272;46;19942;31
2022/11/01 07:39:19;;;;;;;;;;;14.30;99.90;;;;;;2603521;54;19941;31
2022/11/01 07:41:53;;;;;;;;;;;14.50;99.90;;;;;;2622069;46;19989;31
2022/11/01 07:44:29;;;;;;;;;;;14.80;99.90;;;;;;2603679;54;20787;31
2022/11/01 07:47:06;;;;;;;;;;;15.00;99.90;;;;;;2603608;54;20740;31
2022/11/01 07:49:43;;;;;;;;;;;15.10;99.90;;;;;;2603747;54;20021;31
2022/11/01 07:52:19;;;;;;;;;;;15.20;99.90;;;;;;2621822;46;20809;31
2022/11/01 07:54:55;;;;;;;;;;;15.30;99.90;;;;;;2702263;39;20982;31
2022/11/01 07:57:28;;;;;;;;;;;15.60;99.90;;;;;;2621733;46;19942;31
2022/11/01 08:00:03;;;;;;;;;;;15.70;99.90;;;;;;2603614;54;20736;31
2022/11/01 08:02:50;;;;;;;;;;;16.00;99.90;;;;;;2603611;54;20041;31
2022/11/01 08:05:28;;;;;;;;;;;16.00;99.90;;;;;;2603563;54;19960;31
2022/11/01 08:08:05;;;;;;;;;;;16.00;99.90;;;;;;2621957;46;19961;31
2022/11/01 08:10:39;;;;;;;;;;;16.30;99.90;;;;;;2603379;54;20850;31
2022/11/01 08:13:16;;;;;;;;;;;16.40;99.90;;;;;;2622071;46;19934;31
2022/11/01 08:15:50;;;;;;;;;;;16.70;99.90;;;;;;2621825;46;19941;31
2022/11/01 08:18:27;;;;;;;;;;;16.80;99.90;;;;;;2603391;54;20838;31
2022/11/01 08:21:01;;;;;;;;;;;17.00;99.90;;;;;;2603243;54;20773;31
2022/11/01 08:23:36;;;;;;;;;;;17.10;99.90;;;;;;2603274;54;20850;31
2022/11/01 08:26:11;;;;;;;;;;;17.20;99.90;;;;;;2603629;54;19985;31
2022/11/01 08:28:45;;;;;;;;;;;17.30;99.90;;;;;;2622115;46;19941;31
2022/11/01 08:31:19;;;;;;;;;;;17.20;99.90;;;;;;2621798;46;20736;31
2022/11/01 08:33:56;;;;;;;;;;;17.30;99.90;;;;;;2621789;46;19943;31
2022/11/01 08:36:31;;;;;;;;;;;17.10;99.90;;;;;;2621885;46;20013;31
2022/11/01 08:39:05;;;;;;;;;;;16.80;99.90;;;;;;2603597;54;19941;31
2022/11/01 08:41:39;;;;;;;;;;;16.60;99.90;;;;;;2603297;54;19946;31
2022/11/01 08:44:13;;;;;;;;;;;16.50;99.90;;;;;;2622229;46;20718;31
2022/11/01 08:46:49;;;;;;;;;;;16.40;99.90;;;;;;2603321;54;20718;31
2022/11/01 08:49:26;;;;;;;;;;;16.10;99.90;;;;;;2603427;54;20732;31
2022/11/01 08:52:00;;;;;;;;;;;15.90;99.90;;;;;;2621812;47;19935;31
2022/11/01 08:54:36;;;;;;;;;;;15.80;99.90;;;;;;2603381;54;19942;31
2022/11/01 08:57:11;;;;;;;;;;;15.80;99.90;;;;;;2621912;47;19934;31
2022/11/01 08:59:45;;;;;;;;;;;15.70;99.90;;;;;;2603482;54;19941;31
2022/11/01 09:02:20;;;;;;;;;;;15.70;99.90;;;;;;2603273;54;19941;31
2022/11/01 09:04:56;;;;;;;;;;;15.80;99.90;;;;;;2603320;54;19942;31
2022/11/01 09:07:32;;;;;;;;;;;16.30;99.90;;;;;;2621646;47;20785;31
2022/11/01 09:10:08;;;;;;;;;;;16.50;99.90;;;;;;2603328;54;20740;31
2022/11/01 09:12:44;;;;;;;;;;;16.80;99.90;;;;;;2603292;54;19956;31
2022/11/01 09:15:19;;;;;;;;;;;17.10;99.90;;;;;;2603081;54;20697;31
2022/11/01 09:17:53;;;;;;;;;;;17.40;99.90;;;;;;2602985;54;19942;31
2022/11/01 09:20:30;;;;;;;;;;;17.40;99.90;;;;;;2603186;54;19956;31
2022/11/01 09:23:05;;;;;;;;;;;17.50;99.90;;;;;;2621750;47;20046;31
2022/11/01 09:25:39;;;;;;;;;;;17.60;99.90;;;;;;2603132;54;20787;31
2022/11/01 09:28:15;;;;;;;;;;;17.70;99.90;;;;;;2607885;47;19934;31
2022/11/01 09:30:49;;;;;;;;;;;17.70;99.90;;;;;;2603102;54;20761;31
2022/11/01 09:33:40;;;;;;;;;;;17.80;99.90;;;;;;2621776;47;20823;31
2022/11/01 09:36:17;;;;;;;;;;;17.90;99.90;;;;;;2602470;54;19942;31
2022/11/01 09:38:51;;;;;;;;;;;18.00;99.90;;;;;;2603053;54;19934;31
2022/11/01 09:41:27;;;;;;;;;;;17.80;99.90;;;;;;2603209;54;19934;31
2022/11/01 09:44:01;;;;;;;;;;;17.80;99.90;;;;;;2603154;54;20046;31
2022/11/01 09:46:37;;;;;;;;;;;17.80;99.90;;;;;;2621518;47;20819;31
2022/11/01 09:49:15;;;;;;;;;;;17.80;99.90;;;;;;2603079;54;20690;31
2022/11/01 09:51:55;;;;;;;;;;;17.80;99.90;;;;;;2603252;54;19941;31
2022/11/01 09:54:29;;;;;;;;;;;17.90;99.90;;;;;;2621640;47;20009;31
2022/11/01 09:57:07;;;;;;;;;;;17.90;99.90;;;;;;2621763;47;19938;31
2022/11/01 09:59:43;;;;;;;;;;;17.90;99.90;;;;;;2622363;47;20771;31
2022/11/01 10:02:24;;;;;;;;;;;17.90;99.90;;;;;;2622670;46;19934;31
2022/11/01 10:05:01;;;;;;;;;;;17.90;99.90;;;;;;2622354;46;20004;31
2022/11/01 10:07:35;;;;;;;;;;;17.90;99.90;;;;;;2622677;46;19934;31
2022/11/01 10:10:18;;;;;;;;;;;17.90;99.90;;;;;;2622413;46;20002;31
2022/11/01 10:12:57;;;;;;;;;;;17.90;99.90;;;;;;2603826;54;20770;31
2022/11/01 10:15:34;;;;;;;;;;;17.80;99.90;;;;;;2603773;54;20759;31
2022/11/01 10:18:12;;;;;;;;;;;17.60;99.90;;;;;;2604113;54;20741;31
2022/11/01 10:20:47;;;;;;;;;;;17.50;99.90;;;;;;2622143;46;19941;31
2022/11/01 10:23:23;;;;;;;;;;;17.40;99.90;;;;;;2622507;46;19935;31
2022/11/01 10:26:00;;;;;;;;;;;17.40;99.90;;;;;;2622350;46;19941;31
2022/11/01 10:28:35;;;;;;;;;;;17.40;99.90;;;;;;2622350;46;19942;31
2022/11/01 10:31:12;;;;;;;;;;;17.40;99.90;;;;;;2603650;54;20021;31
2022/11/01 10:33:48;;;;;;;;;;;17.40;99.90;;;;;;2603945;54;19961;31
2022/11/01 10:36:23;;;;;;;;;;;17.40;99.90;;;;;;2603865;54;19938;31
2022/11/01 10:39:00;;;;;;;;;;;17.50;99.90;;;;;;2604334;46;20699;31
2022/11/01 10:41:58;;;;;;;;;;;17.50;99.90;;;;;;2603868;54;19938;31
2022/11/01 10:44:32;;;;;;;;;;;17.50;99.90;;;;;;2603543;54;20772;31
2022/11/01 10:47:07;;;;;;;;;;;17.60;99.90;;;;;;2622257;46;19938;31
2022/11/01 10:49:41;;;;;;;;;;;17.60;99.90;;;;;;2603857;54;19989;31
2022/11/01 10:52:37;;;;;;;;;;;17.60;99.90;;;;;;2603649;54;19941;31
2022/11/01 10:55:13;;;;;;;;;;;17.60;99.90;;;;;;2603995;54;19935;31
2022/11/01 10:57:53;;;;;;;;;;;17.50;99.90;;;;;;2622071;46;19938;31
2022/11/01 11:00:27;;;;;;;;;;;17.50;99.90;;;;;;2603859;54;20826;31
2022/11/01 11:03:01;;;;;;;;;;;17.30;99.90;;;;;;2622226;46;19962;31
2022/11/01 11:05:37;;;;;;;;;;;17.20;99.90;;;;;;2622222;46;20811;31
2022/11/01 11:08:12;;;;;;;;;;;17.10;99.90;;;;;;2622489;46;19934;31
2022/11/01 11:10:46;;;;;;;;;;;17.10;99.90;;;;;;2621807;46;20763;31
2022/11/01 11:13:25;;;;;;;;;;;17.00;99.90;;;;;;2603558;54;19986;31
2022/11/01 11:16:01;;;;;;;;;;;17.00;99.90;;;;;;2622281;46;19941;31
2022/11/01 11:18:37;;;;;;;;;;;17.00;99.90;;;;;;2622440;46;20784;31
2022/11/01 11:21:12;;;;;;;;;;;17.00;99.90;;;;;;2603770;54;19934;31
2022/11/01 11:23:49;;;;;;;;;;;17.00;99.90;;;;;;2621954;46;20001;31
2022/11/01 11:26:23;;;;;;;;;;;17.00;99.90;;;;;;2603531;54;20709;31
2022/11/01 11:29:01;;;;;;;;;;;17.00;99.90;;;;;;2603646;54;20762;31
2022/11/01 11:31:39;;;;;;;;;;;17.00;99.90;;;;;;2622122;46;19942;31
2022/11/01 11:34:18;;;;;;;;;;;17.00;99.90;;;;;;2622009;46;20020;31
2022/11/01 11:36:53;;;;;;;;;;;17.10;99.90;;;;;;2603528;54;20713;31
2022/11/01 11:39:27;;;;;;;;;;;17.10;99.90;;;;;;2603668;54;20025;31
2022/11/01 11:42:12;;;;;;;;;;;17.10;99.90;;;;;;2603679;54;20737;31
2022/11/01 11:44:46;;;;;;;;;;;17.10;99.90;;;;;;2603260;54;19934;31
2022/11/01 11:47:31;;;;;;;;;;;17.10;99.90;;;;;;2603435;54;20013;31
2022/11/01 11:50:16;;;;;;;;;;;17.10;99.90;;;;;;2603614;54;20705;31
2022/11/01 11:52:51;;;;;;;;;;;17.00;99.90;;;;;;2603671;54;20761;31
2022/11/01 11:55:28;;;;;;;;;;;17.00;99.90;;;;;;2604710;46;19934;31
2022/11/01 11:58:02;;;;;;;;;;;17.00;99.90;;;;;;2603732;54;19946;31
2022/11/01 12:00:40;;;;;;;;;;;16.90;99.90;;;;;;2603563;54;19943;31
2022/11/01 12:03:24;;;;;;;;;;;16.90;99.90;;;;;;2603770;54;20778;31
2022/11/01 12:05:59;;;;;;;;;;;16.90;99.90;;;;;;2603580;54;20025;31
2022/11/01 12:08:39;;;;;;;;;;;17.00;99.90;;;;;;2621734;46;20008;31
2022/11/01 12:11:13;;;;;;;;;;;17.00;99.90;;;;;;2622195;46;20875;31
2022/11/01 12:13:48;;;;;;;;;;;17.00;99.90;;;;;;2622119;46;19961;31
2022/11/01 12:16:23;;;;;;;;;;;17.00;99.90;;;;;;2603531;54;20785;31
2022/11/01 12:19:00;;;;;;;;;;;17.00;99.90;;;;;;2603713;54;19980;31
2022/11/01 12:21:34;;;;;;;;;;;17.00;99.90;;;;;;2621746;46;20021;31
2022/11/01 12:24:14;;;;;;;;;;;17.10;99.90;;;;;;2603608;54;19934;31
2022/11/01 12:26:50;;;;;;;;;;;17.10;99.90;;;;;;2603449;54;20813;31
2022/11/01 12:29:27;;;;;;;;;;;17.00;99.90;;;;;;2603588;54;19934;31
2022/11/01 12:32:03;;;;;;;;;;;17.10;99.90;;;;;;2622041;46;19934;31
2022/11/01 12:34:41;;;;;;;;;;;17.10;99.90;;;;;;2621837;46;19934;31
2022/11/01 12:37:16;;;;;;;;;;;17.10;99.90;;;;;;2602766;54;20776;31
2022/11/01 12:39:52;;;;;;;;;;;17.10;99.90;;;;;;2622021;46;19934;31
2022/11/01 12:42:26;;;;;;;;;;;17.20;99.90;;;;;;2621918;46;20822;31
2022/11/01 12:45:00;;;;;;;;;;;17.20;99.90;;;;;;2602737;54;19935;31
2022/11/01 12:47:34;;;;;;;;;;;17.20;99.90;;;;;;2603262;54;19931;31
2022/11/01 12:50:13;;;;;;;;;;;17.20;99.90;;;;;;2622017;46;20025;31
2022/11/01 12:52:49;;;;;;;;;;;17.20;99.90;;;;;;2621423;47;19934;31
2022/11/01 12:55:25;;;;;;;;;;;17.20;99.90;;;;;;2621953;47;20694;31
2022/11/01 12:58:00;;;;;;;;;;;17.20;99.90;;;;;;2621682;47;19966;31
2022/11/01 13:00:33;;;;;;;;;;;17.20;99.90;;;;;;2603208;54;19942;31
2022/11/01 13:03:11;;;;;;;;;;;17.20;99.90;;;;;;2622018;47;20091;31
2022/11/01 13:05:51;;;;;;;;;;;17.20;99.90;;;;;;2621767;47;19941;31
2022/11/01 13:08:28;;;;;;;;;;;17.20;99.90;;;;;;2622031;47;20789;31
2022/11/01 13:11:05;;;;;;;;;;;17.10;99.90;;;;;;2603179;54;19942;31
2022/11/01 13:13:39;;;;;;;;;;;17.20;99.90;;;;;;2603402;54;20026;31
2022/11/01 13:16:14;;;;;;;;;;;17.10;99.90;;;;;;2603452;54;19946;31
2022/11/01 13:18:49;;;;;;;;;;;17.20;99.90;;;;;;2602899;54;20006;31
2022/11/01 13:21:29;;;;;;;;;;;17.10;99.90;;;;;;2603164;54;20747;31
2022/11/01 13:24:06;;;;;;;;;;;17.20;99.90;;;;;;2603161;54;20689;31
2022/11/01 13:26:41;;;;;;;;;;;17.10;99.90;;;;;;2603308;54;19934;31
2022/11/01 13:29:16;;;;;;;;;;;17.10;99.90;;;;;;2603327;54;20718;31
2022/11/01 13:31:54;;;;;;;;;;;17.00;99.90;;;;;;2621707;47;19942;31
2022/11/01 13:34:32;;;;;;;;;;;17.00;99.90;;;;;;2622344;46;19935;31
2022/11/01 13:37:11;;;;;;;;;;;17.00;99.90;;;;;;2603865;54;20830;31
2022/11/01 13:39:50;;;;;;;;;;;17.00;99.90;;;;;;2604040;54;20781;31
2022/11/01 13:42:25;;;;;;;;;;;17.00;99.90;;;;;;2603637;54;20752;31
2022/11/01 13:45:03;;;;;;;;;;;16.90;99.90;;;;;;2622365;46;19958;31
2022/11/01 13:47:41;;;;;;;;;;;16.90;99.90;;;;;;2604197;54;19946;31
2022/11/01 13:50:24;;;;;;;;;;;17.00;99.90;;;;;;2603711;54;19934;31
2022/11/01 13:53:04;;;;;;;;;;;17.00;99.90;;;;;;2603908;54;19954;31
2022/11/01 13:55:41;;;;;;;;;;;17.00;99.90;;;;;;2603821;54;19943;31
2022/11/01 13:58:19;;;;;;;;;;;17.00;99.90;;;;;;2603708;54;20802;31
2022/11/01 14:00:57;;;;;;;;;;;17.00;99.90;;;;;;2604166;54;19934;31
2022/11/01 14:03:31;;;;;;;;;;;17.00;99.90;;;;;;2603840;54;20774;31
2022/11/01 14:06:13;;;;;;;;;;;17.00;99.90;;;;;;2621236;46;19934;31
2022/11/01 14:08:52;;;;;;;;;;;17.00;99.90;;;;;;2622643;46;19960;31
2022/11/01 14:11:43;;;;;;;;;;;17.00;99.90;;;;;;2622498;46;20739;31
2022/11/01 14:14:32;;;;;;;;;;;17.00;99.90;;;;;;2622190;46;20728;31
2022/11/01 14:17:22;;;;;;;;;;;16.90;99.90;;;;;;2622348;46;19942;31
2022/11/01 14:20:13;;;;;;;;;;;16.90;99.90;;;;;;2604089;54;19958;31
2022/11/01 14:22:46;;;;;;;;;;;16.90;99.90;;;;;;2622199;46;19935;31
2022/11/01 14:25:34;;;;;;;;;;;16.90;99.90;;;;;;2622355;46;19985;31
2022/11/01 14:28:22;;;;;;;;;;;16.90;99.90;;;;;;2603964;54;20737;31
2022/11/01 14:30:57;;;;;;;;;;;16.80;99.90;;;;;;2603761;54;20701;31
2022/11/01 14:33:32;;;;;;;;;;;16.80;99.90;;;;;;2619493;46;19950;31
2022/11/01 14:36:04;;;;;;;;;;;16.70;99.90;;;;;;2622025;46;19946;31
2022/11/01 14:38:38;;;;;;;;;;;16.70;99.90;;;;;;2603108;54;20779;31
2022/11/01 14:41:17;;;;;;;;;;;16.70;99.90;;;;;;2603786;54;19935;31
2022/11/01 14:43:50;;;;;;;;;;;16.70;99.90;;;;;;2622178;46;20760;31
2022/11/01 14:46:25;;;;;;;;;;;16.70;99.90;;;;;;2603953;54;19935;31
2022/11/01 14:49:00;;;;;;;;;;;16.60;99.90;;;;;;2621920;46;19934;31
2022/11/01 14:51:36;;;;;;;;;;;16.60;99.90;;;;;;2603611;54;20731;31
2022/11/01 14:54:14;;;;;;;;;;;16.50;99.90;;;;;;2603963;54;20737;31
2022/11/01 14:56:53;;;;;;;;;;;16.50;99.90;;;;;;2603898;54;19934;31
2022/11/01 14:59:27;;;;;;;;;;;16.40;99.90;;;;;;2622220;46;19942;31
2022/11/01 15:02:03;;;;;;;;;;;16.40;99.90;;;;;;2603770;54;19942;31
2022/11/01 15:04:40;;;;;;;;;;;16.40;99.90;;;;;;2603927;54;20789;31
2022/11/01 15:07:19;;;;;;;;;;;16.30;99.90;;;;;;2622092;46;20844;31
2022/11/01 15:10:00;;;;;;;;;;;16.30;99.90;;;;;;2603636;54;19938;31
2022/11/01 15:12:38;;;;;;;;;;;16.20;99.90;;;;;;2603857;54;20781;31
2022/11/01 15:15:19;;;;;;;;;;;16.20;99.90;;;;;;2622488;46;20795;31
2022/11/01 15:17:56;;;;;;;;;;;16.20;99.90;;;;;;2603406;54;19935;31
2022/11/01 15:20:31;;;;;;;;;;;16.10;99.90;;;;;;2603934;54;20726;31
2022/11/01 15:23:06;;;;;;;;;;;16.10;99.90;;;;;;2602944;54;20822;31
2022/11/01 15:25:42;;;;;;;;;;;16.10;99.90;;;;;;2603619;54;20795;31
2022/11/01 15:28:20;;;;;;;;;;;16.00;99.90;;;;;;2603581;54;20025;31
2022/11/01 15:30:55;;;;;;;;;;;16.00;99.90;;;;;;2603749;54;19946;31
2022/11/01 15:33:30;;;;;;;;;;;15.90;99.90;;;;;;2622140;46;19934;31
2022/11/01 15:36:05;;;;;;;;;;;15.90;99.90;;;;;;2603520;54;19935;31
2022/11/01 15:38:50;;;;;;;;;;;15.90;99.90;;;;;;2622106;46;19947;31
2022/11/01 15:41:27;;;;;;;;;;;15.90;99.90;;;;;;2603656;54;20709;31